sensor_id;sensor_type;location;lat;lon;timestamp;pressure;altitude;pressure_sealevel;temperature;humidity
70730;BME280;58315;53.336;55.932;2023-03-16T00:00:36;101320.06;;;-2.34;51.56
70730;BME280;58315;53.336;55.932;2023-03-16T00:03:02;101324.41;;;-2.36;51.20
70730;BME280;58315;53.336;55.932;2023-03-16T00:05:28;101314.81;;;-2.27;51.80
70730;BME280;58315;53.336;55.932;2023-03-16T00:07:57;101314.78;;;-2.22;51.96
70730;BME280;58315;53.336;55.932;2023-03-16T00:10:23;101310.44;;;-2.20;51.51
70730;BME280;58315;53.336;55.932;2023-03-16T00:12:53;101306.09;;;-2.15;51.09
70730;BME280;58315;53.336;55.932;2023-03-16T00:15:19;101316.41;;;-2.12;51.19
70730;BME280;58315;53.336;55.932;2023-03-16T00:17:45;101320.78;;;-2.19;51.32
70730;BME280;58315;53.336;55.932;2023-03-16T00:20:15;101315.63;;;-2.22;51.23
70730;BME280;58315;53.336;55.932;2023-03-16T00:22:42;101307.94;;;-2.31;51.08
70730;BME280;58315;53.336;55.932;2023-03-16T00:25:12;101311.44;;;-2.33;51.73
70730;BME280;58315;53.336;55.932;2023-03-16T00:27:39;101315.63;;;-2.23;51.36
70730;BME280;58315;53.336;55.932;2023-03-16T00:30:06;101314.06;;;-2.38;51.97
70730;BME280;58315;53.336;55.932;2023-03-16T00:32:35;101325.31;;;-2.42;52.02
70730;BME280;58315;53.336;55.932;2023-03-16T00:35:02;101325.34;;;-2.44;52.13
70730;BME280;58315;53.336;55.932;2023-03-16T00:37:29;101332.25;;;-2.46;52.06
70730;BME280;58315;53.336;55.932;2023-03-16T00:39:59;101335.72;;;-2.47;52.20
70730;BME280;58315;53.336;55.932;2023-03-16T00:42:28;101326.22;;;-2.45;51.97
70730;BME280;58315;53.336;55.932;2023-03-16T00:44:57;101333.09;;;-2.45;51.97
70730;BME280;58315;53.336;55.932;2023-03-16T00:47:25;101320.31;;;-2.60;52.08
70730;BME280;58315;53.336;55.932;2023-03-16T00:49:51;101321.22;;;-2.64;52.21
70730;BME280;58315;53.336;55.932;2023-03-16T00:52:17;101324.66;;;-2.67;51.80
70730;BME280;58315;53.336;55.932;2023-03-16T00:54:45;101319.56;;;-2.75;51.84
70730;BME280;58315;53.336;55.932;2023-03-16T00:57:13;101312.72;;;-2.80;52.13
70730;BME280;58315;53.336;55.932;2023-03-16T00:59:41;101305.88;;;-2.87;51.84
70730;BME280;58315;53.336;55.932;2023-03-16T01:02:08;101309.34;;;-2.88;52.32
70730;BME280;58315;53.336;55.932;2023-03-16T01:04:34;101307.66;;;-2.96;52.16
70730;BME280;58315;53.336;55.932;2023-03-16T01:07:04;101304.16;;;-2.90;52.14
70730;BME280;58315;53.336;55.932;2023-03-16T01:09:30;101304.16;;;-2.88;52.49
70730;BME280;58315;53.336;55.932;2023-03-16T01:12:06;101302.38;;;-2.80;52.27
70730;BME280;58315;53.336;55.932;2023-03-16T01:14:34;101316.19;;;-2.81;52.04
70730;BME280;58315;53.336;55.932;2023-03-16T01:17:03;101322.25;;;-2.90;52.11
70730;BME280;58315;53.336;55.932;2023-03-16T01:19:30;101321.41;;;-2.91;52.17
70730;BME280;58315;53.336;55.932;2023-03-16T01:22:05;101310.16;;;-2.83;51.95
70730;BME280;58315;53.336;55.932;2023-03-16T01:24:32;101316.22;;;-2.87;52.13
70730;BME280;58315;53.336;55.932;2023-03-16T01:26:59;101311.91;;;-2.87;51.97
70730;BME280;58315;53.336;55.932;2023-03-16T01:29:25;101307.59;;;-2.86;52.17
70730;BME280;58315;53.336;55.932;2023-03-16T01:31:53;101306.78;;;-2.92;52.10
70730;BME280;58315;53.336;55.932;2023-03-16T01:34:21;101302.44;;;-2.93;52.11
70730;BME280;58315;53.336;55.932;2023-03-16T01:36:48;101313.63;;;-2.84;52.21
70730;BME280;58315;53.336;55.932;2023-03-16T01:39:21;101316.22;;;-2.87;52.50
70730;BME280;58315;53.336;55.932;2023-03-16T01:41:48;101307.56;;;-2.83;52.35
70730;BME280;58315;53.336;55.932;2023-03-16T01:44:20;101310.94;;;-2.75;52.37
70730;BME280;58315;53.336;55.932;2023-03-16T01:46:49;101316.09;;;-2.72;52.46
70730;BME280;58315;53.336;55.932;2023-03-16T01:49:28;101317.69;;;-2.54;52.46
70730;BME280;58315;53.336;55.932;2023-03-16T01:54:38;101317.66;;;-2.53;51.79
70730;BME280;58315;53.336;55.932;2023-03-16T01:57:12;101318.56;;;-2.57;51.68
70730;BME280;58315;53.336;55.932;2023-03-16T01:59:54;101325.38;;;-2.47;51.92
70730;BME280;58315;53.336;55.932;2023-03-16T02:02:26;101321.06;;;-2.48;51.98
70730;BME280;58315;53.336;55.932;2023-03-16T02:05:04;101315.91;;;-2.51;51.89
70730;BME280;58315;53.336;55.932;2023-03-16T02:07:38;101321.06;;;-2.49;51.67
70730;BME280;58315;53.336;55.932;2023-03-16T02:10:08;101322.88;;;-2.56;52.01
70730;BME280;58315;53.336;55.932;2023-03-16T02:12:38;101323.75;;;-2.60;52.34
70730;BME280;58315;53.336;55.932;2023-03-16T02:15:04;101327.22;;;-2.59;52.07
70730;BME280;58315;53.336;55.932;2023-03-16T02:17:50;101324.69;;;-2.65;52.11
70730;BME280;58315;53.336;55.932;2023-03-16T02:23:12;101330.59;;;-2.51;52.71
70730;BME280;58315;53.336;55.932;2023-03-16T02:31:19;101343.34;;;-2.31;52.77
70730;BME280;58315;53.336;55.932;2023-03-16T02:33:49;101346.56;;;-2.05;52.62
70730;BME280;58315;53.336;55.932;2023-03-16T02:36:17;101348.19;;;-1.96;52.77
70730;BME280;58315;53.336;55.932;2023-03-16T02:38:45;101345.50;;;-1.88;52.34
70730;BME280;58315;53.336;55.932;2023-03-16T02:41:17;101340.25;;;-1.81;51.84
70730;BME280;58315;53.336;55.932;2023-03-16T02:43:48;101344.66;;;-1.89;51.92
70730;BME280;58315;53.336;55.932;2023-03-16T02:46:24;101332.53;;;-1.85;52.24
70730;BME280;58315;53.336;55.932;2023-03-16T02:49:00;101339.25;;;-1.72;52.38
70730;BME280;58315;53.336;55.932;2023-03-16T02:51:29;101348.69;;;-1.65;51.98
70730;BME280;58315;53.336;55.932;2023-03-16T02:53:55;101346.09;;;-1.65;51.61
70730;BME280;58315;53.336;55.932;2023-03-16T02:56:22;101346.94;;;-1.63;51.72
70730;BME280;58315;53.336;55.932;2023-03-16T02:58:49;101339.13;;;-1.60;51.55
70730;BME280;58315;53.336;55.932;2023-03-16T03:01:17;101346.78;;;-1.49;51.79
70730;BME280;58315;53.336;55.932;2023-03-16T03:03:43;101341.53;;;-1.44;51.53
70730;BME280;58315;53.336;55.932;2023-03-16T03:06:09;101336.38;;;-1.48;50.83
70730;BME280;58315;53.336;55.932;2023-03-16T03:08:36;101350.28;;;-1.53;51.60
70730;BME280;58315;53.336;55.932;2023-03-16T03:11:02;101349.41;;;-1.52;50.82
70730;BME280;58315;53.336;55.932;2023-03-16T03:13:28;101352.09;;;-1.60;51.01
70730;BME280;58315;53.336;55.932;2023-03-16T03:15:56;101363.28;;;-1.58;51.42
70730;BME280;58315;53.336;55.932;2023-03-16T03:18:24;101354.59;;;-1.54;51.22
70730;BME280;58315;53.336;55.932;2023-03-16T03:20:51;101363.16;;;-1.46;50.67
70730;BME280;58315;53.336;55.932;2023-03-16T03:23:17;101365.59;;;-1.33;50.29
70730;BME280;58315;53.336;55.932;2023-03-16T03:25:43;101368.28;;;-1.41;50.60
70730;BME280;58315;53.336;55.932;2023-03-16T03:28:10;101358.66;;;-1.33;50.71
70730;BME280;58315;53.336;55.932;2023-03-16T03:30:36;101372.53;;;-1.35;50.24
70730;BME280;58315;53.336;55.932;2023-03-16T03:33:03;101373.38;;;-1.33;50.23
70730;BME280;58315;53.336;55.932;2023-03-16T03:35:29;101368.97;;;-1.27;50.85
70730;BME280;58315;53.336;55.932;2023-03-16T03:37:56;101359.44;;;-1.26;50.50
70730;BME280;58315;53.336;55.932;2023-03-16T03:40:23;101363.75;;;-1.24;50.68
70730;BME280;58315;53.336;55.932;2023-03-16T03:42:56;101361.00;;;-1.14;50.21
70730;BME280;58315;53.336;55.932;2023-03-16T03:45:22;101353.19;;;-1.11;50.44
70730;BME280;58315;53.336;55.932;2023-03-16T03:47:49;101354.84;;;-1.06;49.69
70730;BME280;58315;53.336;55.932;2023-03-16T03:50:19;101359.13;;;-1.02;49.85
70730;BME280;58315;53.336;55.932;2023-03-16T03:53:04;101363.34;;;-0.96;49.69
70730;BME280;58315;53.336;55.932;2023-03-16T03:55:34;101364.09;;;-0.88;49.96
70730;BME280;58315;53.336;55.932;2023-03-16T03:58:00;101364.84;;;-0.81;49.10
70730;BME280;58315;53.336;55.932;2023-03-16T04:00:26;101362.22;;;-0.78;49.11
70730;BME280;58315;53.336;55.932;2023-03-16T04:02:52;101369.94;;;-0.74;48.95
70730;BME280;58315;53.336;55.932;2023-03-16T04:05:26;101375.06;;;-0.70;49.04
70730;BME280;58315;53.336;55.932;2023-03-16T04:07:55;101373.25;;;-0.64;48.91
70730;BME280;58315;53.336;55.932;2023-03-16T04:10:27;101374.03;;;-0.59;48.47
70730;BME280;58315;53.336;55.932;2023-03-16T04:12:54;101377.34;;;-0.47;48.58
70730;BME280;58315;53.336;55.932;2023-03-16T04:15:21;101372.97;;;-0.45;48.34
70730;BME280;58315;53.336;55.932;2023-03-16T04:18:08;101366.63;;;-0.29;48.27
70730;BME280;58315;53.336;55.932;2023-03-16T04:20:34;101369.81;;;-0.15;48.58
70730;BME280;58315;53.336;55.932;2023-03-16T04:23:00;101364.44;;;-0.04;47.52
70730;BME280;58315;53.336;55.932;2023-03-16T04:25:28;101370.38;;;0.03;47.49
70730;BME280;58315;53.336;55.932;2023-03-16T04:27:56;101372.53;;;0.26;47.30
70730;BME280;58315;53.336;55.932;2023-03-16T04:30:25;101376.84;;;0.30;47.24
70730;BME280;58315;53.336;55.932;2023-03-16T04:32:56;101375.88;;;0.34;46.85
70730;BME280;58315;53.336;55.932;2023-03-16T04:35:23;101373.22;;;0.35;47.01
70730;BME280;58315;53.336;55.932;2023-03-16T04:37:52;101371.97;;;0.55;46.57
70730;BME280;58315;53.336;55.932;2023-03-16T04:40:23;101363.00;;;0.69;46.58
70730;BME280;58315;53.336;55.932;2023-03-16T04:42:59;101370.63;;;0.79;46.05
70730;BME280;58315;53.336;55.932;2023-03-16T04:45:25;101374.56;;;0.96;45.59
70730;BME280;58315;53.336;55.932;2023-03-16T04:47:54;101367.44;;;1.05;45.81
70730;BME280;58315;53.336;55.932;2023-03-16T04:50:21;101363.34;;;1.32;46.17
70730;BME280;58315;53.336;55.932;2023-03-16T04:52:51;101371.06;;;1.71;45.17
70730;BME280;58315;53.336;55.932;2023-03-16T04:55:17;101372.03;;;2.01;44.03
70730;BME280;58315;53.336;55.932;2023-03-16T04:57:44;101373.06;;;2.28;44.48
70730;BME280;58315;53.336;55.932;2023-03-16T05:00:11;101358.66;;;2.46;44.03
70730;BME280;58315;53.336;55.932;2023-03-16T05:03:01;101367.94;;;2.84;44.29
70730;BME280;58315;53.336;55.932;2023-03-16T05:05:27;101365.53;;;3.07;42.93
70730;BME280;58315;53.336;55.932;2023-03-16T05:07:53;101369.53;;;3.18;42.54
70730;BME280;58315;53.336;55.932;2023-03-16T05:10:19;101370.19;;;3.24;42.58
70730;BME280;58315;53.336;55.932;2023-03-16T05:12:46;101362.28;;;3.27;42.30
70730;BME280;58315;53.336;55.932;2023-03-16T05:15:12;101364.69;;;3.33;42.05
70730;BME280;58315;53.336;55.932;2023-03-16T05:17:44;101350.41;;;3.44;42.60
70730;BME280;58315;53.336;55.932;2023-03-16T05:20:13;101368.09;;;3.35;41.69
70730;BME280;58315;53.336;55.932;2023-03-16T05:22:44;101375.25;;;3.30;42.44
70730;BME280;58315;53.336;55.932;2023-03-16T05:25:22;101374.47;;;3.55;42.34
70730;BME280;58315;53.336;55.932;2023-03-16T05:27:52;101368.25;;;3.84;42.12
70730;BME280;58315;53.336;55.932;2023-03-16T05:30:45;101371.28;;;4.47;40.64
70730;BME280;58315;53.336;55.932;2023-03-16T05:33:16;101363.44;;;4.92;39.96
70730;BME280;58315;53.336;55.932;2023-03-16T05:35:46;101372.06;;;5.40;39.41
70730;BME280;58315;53.336;55.932;2023-03-16T05:38:13;101375.22;;;5.90;39.08
70730;BME280;58315;53.336;55.932;2023-03-16T05:40:42;101364.94;;;6.06;39.42
70730;BME280;58315;53.336;55.932;2023-03-16T05:43:20;101359.94;;;6.41;39.17
70730;BME280;58315;53.336;55.932;2023-03-16T05:45:49;101358.97;;;6.62;38.43
70730;BME280;58315;53.336;55.932;2023-03-16T05:48:17;101365.00;;;6.64;38.15
70730;BME280;58315;53.336;55.932;2023-03-16T05:50:47;101362.34;;;6.45;37.60
70730;BME280;58315;53.336;55.932;2023-03-16T05:53:16;101357.94;;;6.46;37.14
70730;BME280;58315;53.336;55.932;2023-03-16T05:55:42;101356.50;;;6.39;37.74
70730;BME280;58315;53.336;55.932;2023-03-16T05:58:11;101355.50;;;6.22;37.08
70730;BME280;58315;53.336;55.932;2023-03-16T06:00:39;101360.53;;;6.07;37.52
70730;BME280;58315;53.336;55.932;2023-03-16T06:03:17;101363.97;;;5.46;38.21
70730;BME280;58315;53.336;55.932;2023-03-16T06:05:43;101361.09;;;5.08;38.27
70730;BME280;58315;53.336;55.932;2023-03-16T06:08:10;101357.19;;;4.96;39.50
70730;BME280;58315;53.336;55.932;2023-03-16T06:10:38;101349.19;;;4.77;39.33
70730;BME280;58315;53.336;55.932;2023-03-16T06:13:04;101347.59;;;4.73;39.57
70730;BME280;58315;53.336;55.932;2023-03-16T06:15:30;101345.91;;;4.72;39.06
70730;BME280;58315;53.336;55.932;2023-03-16T06:17:59;101342.47;;;4.70;40.04
70730;BME280;58315;53.336;55.932;2023-03-16T06:20:25;101337.34;;;4.67;39.94
70730;BME280;58315;53.336;55.932;2023-03-16T06:22:51;101342.56;;;4.67;40.04
70730;BME280;58315;53.336;55.932;2023-03-16T06:25:17;101332.31;;;4.39;40.76
70730;BME280;58315;53.336;55.932;2023-03-16T06:27:45;101326.38;;;4.34;40.16
70730;BME280;58315;53.336;55.932;2023-03-16T06:30:15;101326.25;;;4.37;40.87
70730;BME280;58315;53.336;55.932;2023-03-16T06:32:43;101319.59;;;4.52;40.83
70730;BME280;58315;53.336;55.932;2023-03-16T06:35:13;101312.69;;;4.49;40.48
70730;BME280;58315;53.336;55.932;2023-03-16T06:37:50;101310.38;;;4.65;40.28
70730;BME280;58315;53.336;55.932;2023-03-16T06:40:29;101309.16;;;4.74;40.56
70730;BME280;58315;53.336;55.932;2023-03-16T06:42:55;101305.47;;;4.79;39.71
70730;BME280;58315;53.336;55.932;2023-03-16T06:45:22;101302.88;;;4.78;40.46
70730;BME280;58315;53.336;55.932;2023-03-16T06:47:50;101295.94;;;4.77;40.33
70730;BME280;58315;53.336;55.932;2023-03-16T06:50:17;101296.56;;;4.83;40.66
70730;BME280;58315;53.336;55.932;2023-03-16T06:52:43;101304.34;;;4.63;40.49
70730;BME280;58315;53.336;55.932;2023-03-16T06:55:09;101300.41;;;4.51;40.45
70730;BME280;58315;53.336;55.932;2023-03-16T06:57:39;101298.66;;;4.28;41.08
70730;BME280;58315;53.336;55.932;2023-03-16T07:00:08;101291.91;;;4.46;41.55
70730;BME280;58315;53.336;55.932;2023-03-16T07:02:36;101302.56;;;4.64;41.60
70730;BME280;58315;53.336;55.932;2023-03-16T07:05:06;101298.50;;;4.78;40.90
70730;BME280;58315;53.336;55.932;2023-03-16T07:07:33;101297.91;;;4.48;41.57
70730;BME280;58315;53.336;55.932;2023-03-16T07:09:58;101293.38;;;4.53;41.80
70730;BME280;58315;53.336;55.932;2023-03-16T07:12:24;101292.22;;;4.37;41.54
70730;BME280;58315;53.336;55.932;2023-03-16T07:14:51;101288.09;;;4.31;42.09
70730;BME280;58315;53.336;55.932;2023-03-16T07:17:20;101278.84;;;4.45;42.21
70730;BME280;58315;53.336;55.932;2023-03-16T07:19:46;101290.13;;;4.47;41.27
70730;BME280;58315;53.336;55.932;2023-03-16T07:22:13;101292.06;;;4.65;42.36
70730;BME280;58315;53.336;55.932;2023-03-16T07:24:40;101292.19;;;4.84;41.86
70730;BME280;58315;53.336;55.932;2023-03-16T07:27:06;101288.41;;;5.13;41.87
70730;BME280;58315;53.336;55.932;2023-03-16T07:29:33;101286.19;;;5.24;41.40
70730;BME280;58315;53.336;55.932;2023-03-16T07:32:01;101282.31;;;5.33;40.82
70730;BME280;58315;53.336;55.932;2023-03-16T07:34:34;101280.97;;;5.65;41.35
70730;BME280;58315;53.336;55.932;2023-03-16T07:37:01;101280.00;;;5.68;41.18
70730;BME280;58315;53.336;55.932;2023-03-16T07:39:30;101276.31;;;5.72;41.74
70730;BME280;58315;53.336;55.932;2023-03-16T07:42:03;101274.00;;;5.85;40.04
70730;BME280;58315;53.336;55.932;2023-03-16T07:44:45;101271.97;;;5.91;40.08
70730;BME280;58315;53.336;55.932;2023-03-16T07:47:12;101274.38;;;5.97;40.64
70730;BME280;58315;53.336;55.932;2023-03-16T07:49:38;101272.97;;;5.89;40.33
70730;BME280;58315;53.336;55.932;2023-03-16T07:52:06;101274.69;;;5.90;40.12
70730;BME280;58315;53.336;55.932;2023-03-16T07:54:39;101263.72;;;5.80;40.31
70730;BME280;58315;53.336;55.932;2023-03-16T07:57:06;101260.97;;;5.83;40.45
70730;BME280;58315;53.336;55.932;2023-03-16T07:59:39;101257.06;;;5.93;40.56
70730;BME280;58315;53.336;55.932;2023-03-16T08:02:15;101259.56;;;5.96;40.96
70730;BME280;58315;53.336;55.932;2023-03-16T08:04:42;101261.03;;;6.02;40.72
70730;BME280;58315;53.336;55.932;2023-03-16T08:07:09;101250.28;;;6.08;40.92
70730;BME280;58315;53.336;55.932;2023-03-16T08:09:52;101243.03;;;6.13;40.64
70730;BME280;58315;53.336;55.932;2023-03-16T08:12:23;101251.19;;;6.07;40.86
70730;BME280;58315;53.336;55.932;2023-03-16T08:14:49;101251.06;;;5.90;41.11
70730;BME280;58315;53.336;55.932;2023-03-16T08:17:19;101243.19;;;5.90;41.25
70730;BME280;58315;53.336;55.932;2023-03-16T08:19:47;101254.84;;;6.03;41.33
70730;BME280;58315;53.336;55.932;2023-03-16T08:22:14;101248.03;;;5.99;40.94
70730;BME280;58315;53.336;55.932;2023-03-16T08:24:43;101247.69;;;6.07;41.14
70730;BME280;58315;53.336;55.932;2023-03-16T08:27:11;101241.94;;;5.98;41.03
70730;BME280;58315;53.336;55.932;2023-03-16T08:29:41;101239.53;;;5.94;41.00
70730;BME280;58315;53.336;55.932;2023-03-16T08:32:11;101236.25;;;5.89;41.50
70730;BME280;58315;53.336;55.932;2023-03-16T08:34:41;101230.69;;;5.96;40.96
70730;BME280;58315;53.336;55.932;2023-03-16T08:37:08;101225.59;;;5.92;40.61
70730;BME280;58315;53.336;55.932;2023-03-16T08:39:35;101223.38;;;6.03;41.30
70730;BME280;58315;53.336;55.932;2023-03-16T08:42:05;101222.13;;;6.12;40.31
70730;BME280;58315;53.336;55.932;2023-03-16T08:44:39;101222.53;;;6.02;40.17
70730;BME280;58315;53.336;55.932;2023-03-16T08:47:06;101221.28;;;6.11;40.63
70730;BME280;58315;53.336;55.932;2023-03-16T08:49:34;101215.53;;;6.22;40.84
70730;BME280;58315;53.336;55.932;2023-03-16T08:52:18;101213.19;;;6.16;39.95
70730;BME280;58315;53.336;55.932;2023-03-16T08:54:44;101213.31;;;6.13;40.20
70730;BME280;58315;53.336;55.932;2023-03-16T08:57:10;101209.41;;;6.21;40.76
70730;BME280;58315;53.336;55.932;2023-03-16T08:59:36;101204.81;;;6.26;40.15
70730;BME280;58315;53.336;55.932;2023-03-16T09:02:03;101201.97;;;6.31;40.39
70730;BME280;58315;53.336;55.932;2023-03-16T09:04:29;101200.53;;;6.43;39.99
70730;BME280;58315;53.336;55.932;2023-03-16T09:06:55;101199.44;;;6.47;40.35
70730;BME280;58315;53.336;55.932;2023-03-16T09:09:21;101189.75;;;6.49;39.87
70730;BME280;58315;53.336;55.932;2023-03-16T09:11:47;101190.31;;;6.56;40.20
70730;BME280;58315;53.336;55.932;2023-03-16T09:14:14;101199.63;;;6.44;40.37
70730;BME280;58315;53.336;55.932;2023-03-16T09:16:40;101197.63;;;6.49;40.46
70730;BME280;58315;53.336;55.932;2023-03-16T09:19:06;101198.47;;;6.49;40.70
70730;BME280;58315;53.336;55.932;2023-03-16T09:21:32;101183.41;;;6.53;40.59
70730;BME280;58315;53.336;55.932;2023-03-16T09:24:00;101191.44;;;6.50;39.80
70730;BME280;58315;53.336;55.932;2023-03-16T09:26:26;101196.63;;;6.51;39.92
70730;BME280;58315;53.336;55.932;2023-03-16T09:28:53;101182.00;;;6.46;40.02
70730;BME280;58315;53.336;55.932;2023-03-16T09:31:20;101169.28;;;6.56;39.92
70730;BME280;58315;53.336;55.932;2023-03-16T09:33:46;101179.91;;;6.71;39.86
70730;BME280;58315;53.336;55.932;2023-03-16T09:36:13;101176.03;;;6.79;39.72
70730;BME280;58315;53.336;55.932;2023-03-16T09:38:40;101183.78;;;6.82;39.75
70730;BME280;58315;53.336;55.932;2023-03-16T09:46:27;101170.78;;;6.79;39.42
70730;BME280;58315;53.336;55.932;2023-03-16T09:48:56;101167.78;;;6.50;39.70
70730;BME280;58315;53.336;55.932;2023-03-16T09:51:40;101165.16;;;6.50;38.83
70730;BME280;58315;53.336;55.932;2023-03-16T09:54:17;101163.84;;;6.41;39.15
70730;BME280;58315;53.336;55.932;2023-03-16T09:56:48;101162.44;;;6.34;39.71
70730;BME280;58315;53.336;55.932;2023-03-16T09:59:16;101170.03;;;6.40;39.44
70730;BME280;58315;53.336;55.932;2023-03-16T10:02:13;101166.19;;;6.47;38.95
70730;BME280;58315;53.336;55.932;2023-03-16T10:07:43;101159.16;;;6.48;38.55
70730;BME280;58315;53.336;55.932;2023-03-16T10:12:42;101150.97;;;6.54;39.85
70730;BME280;58315;53.336;55.932;2023-03-16T10:15:18;101152.75;;;6.53;39.43
70730;BME280;58315;53.336;55.932;2023-03-16T10:17:55;101147.66;;;6.68;39.34
70730;BME280;58315;53.336;55.932;2023-03-16T10:20:26;101141.41;;;6.70;39.39
70730;BME280;58315;53.336;55.932;2023-03-16T10:22:53;101136.03;;;6.73;37.83
70730;BME280;58315;53.336;55.932;2023-03-16T10:25:43;101142.19;;;6.90;38.18
70730;BME280;58315;53.336;55.932;2023-03-16T10:28:15;101138.50;;;6.76;37.95
70730;BME280;58315;53.336;55.932;2023-03-16T10:30:41;101142.69;;;6.81;38.17
70730;BME280;58315;53.336;55.932;2023-03-16T10:33:25;101142.59;;;6.99;38.04
70730;BME280;58315;53.336;55.932;2023-03-16T10:36:01;101137.72;;;6.92;37.70
70730;BME280;58315;53.336;55.932;2023-03-16T10:46:23;101118.00;;;6.83;37.22
70730;BME280;58315;53.336;55.932;2023-03-16T10:48:53;101120.94;;;6.94;36.73
70730;BME280;58315;53.336;55.932;2023-03-16T10:51:23;101113.00;;;6.96;37.63
70730;BME280;58315;53.336;55.932;2023-03-16T10:53:51;101115.13;;;7.05;36.68
70730;BME280;58315;53.336;55.932;2023-03-16T10:56:23;101119.50;;;7.06;36.91
70730;BME280;58315;53.336;55.932;2023-03-16T10:58:50;101109.31;;;7.16;37.30
70730;BME280;58315;53.336;55.932;2023-03-16T11:01:24;101112.25;;;7.27;36.32
70730;BME280;58315;53.336;55.932;2023-03-16T11:03:57;101103.78;;;7.38;37.09
70730;BME280;58315;53.336;55.932;2023-03-16T11:06:28;101113.41;;;7.39;36.63
70730;BME280;58315;53.336;55.932;2023-03-16T11:09:06;101108.78;;;7.27;36.39
70730;BME280;58315;53.336;55.932;2023-03-16T11:11:37;101099.28;;;7.24;36.89
70730;BME280;58315;53.336;55.932;2023-03-16T11:14:10;101105.84;;;7.15;36.89
70730;BME280;58315;53.336;55.932;2023-03-16T11:19:34;101106.94;;;7.11;37.90
70730;BME280;58315;53.336;55.932;2023-03-16T11:22:12;101102.78;;;7.07;38.26
70730;BME280;58315;53.336;55.932;2023-03-16T11:27:34;101104.63;;;7.05;37.82
70730;BME280;58315;53.336;55.932;2023-03-16T11:32:35;101101.88;;;6.73;38.50
70730;BME280;58315;53.336;55.932;2023-03-16T11:35:10;101093.66;;;6.80;38.34
70730;BME280;58315;53.336;55.932;2023-03-16T11:38:32;101100.31;;;6.87;37.87
70730;BME280;58315;53.336;55.932;2023-03-16T11:40:56;101096.63;;;6.73;37.67
70730;BME280;58315;53.336;55.932;2023-03-16T11:52:20;101089.03;;;6.67;36.58
70730;BME280;58315;53.336;55.932;2023-03-16T12:02:43;101092.25;;;6.72;36.05
70730;BME280;58315;53.336;55.932;2023-03-16T12:05:19;101089.09;;;6.83;35.73
70730;BME280;58315;53.336;55.932;2023-03-16T12:08:09;101087.94;;;6.89;35.96
70730;BME280;58315;53.336;55.932;2023-03-16T12:15:53;101084.94;;;6.96;35.09
70730;BME280;58315;53.336;55.932;2023-03-16T12:18:25;101089.88;;;7.03;34.96
70730;BME280;58315;53.336;55.932;2023-03-16T12:21:01;101079.28;;;7.04;33.96
70730;BME280;58315;53.336;55.932;2023-03-16T12:23:42;101074.97;;;7.03;32.58
70730;BME280;58315;53.336;55.932;2023-03-16T12:26:14;101068.47;;;6.93;33.05
70730;BME280;58315;53.336;55.932;2023-03-16T12:28:42;101065.00;;;6.92;33.29
70730;BME280;58315;53.336;55.932;2023-03-16T12:31:16;101071.38;;;7.04;33.04
70730;BME280;58315;53.336;55.932;2023-03-16T12:42:39;101058.25;;;6.87;33.16
70730;BME280;58315;53.336;55.932;2023-03-16T12:45:11;101054.34;;;6.78;33.00
70730;BME280;58315;53.336;55.932;2023-03-16T12:48:18;101040.03;;;6.84;32.69
70730;BME280;58315;53.336;55.932;2023-03-16T12:50:55;101047.69;;;6.71;33.12
70730;BME280;58315;53.336;55.932;2023-03-16T12:54:01;101034.66;;;6.69;33.09
70730;BME280;58315;53.336;55.932;2023-03-16T12:56:29;101030.94;;;6.73;32.82
70730;BME280;58315;53.336;55.932;2023-03-16T12:58:59;101037.59;;;6.81;33.36
70730;BME280;58315;53.336;55.932;2023-03-16T13:01:28;101040.38;;;6.78;33.41
70730;BME280;58315;53.336;55.932;2023-03-16T13:04:12;101032.78;;;6.71;33.42
70730;BME280;58315;53.336;55.932;2023-03-16T13:06:45;101035.97;;;6.61;34.36
70730;BME280;58315;53.336;55.932;2023-03-16T13:09:19;101030.16;;;6.54;34.50
70730;BME280;58315;53.336;55.932;2023-03-16T13:11:47;101027.06;;;6.46;33.93
70730;BME280;58315;53.336;55.932;2023-03-16T13:14:39;101033.03;;;6.49;34.26
70730;BME280;58315;53.336;55.932;2023-03-16T13:19:43;101038.06;;;6.37;34.77
70730;BME280;58315;53.336;55.932;2023-03-16T13:22:24;101042.38;;;6.38;34.99
70730;BME280;58315;53.336;55.932;2023-03-16T13:24:54;101040.81;;;6.34;35.24
70730;BME280;58315;53.336;55.932;2023-03-16T13:27:26;101037.25;;;6.35;35.48
70730;BME280;58315;53.336;55.932;2023-03-16T13:29:55;101036.00;;;6.24;35.05
70730;BME280;58315;53.336;55.932;2023-03-16T13:32:23;101025.75;;;6.20;34.55
70730;BME280;58315;53.336;55.932;2023-03-16T13:34:57;101035.25;;;6.22;34.61
70730;BME280;58315;53.336;55.932;2023-03-16T13:37:24;101038.16;;;6.16;34.40
70730;BME280;58315;53.336;55.932;2023-03-16T13:39:57;101035.69;;;6.13;33.98
70730;BME280;58315;53.336;55.932;2023-03-16T13:42:28;101035.13;;;6.07;34.13
70730;BME280;58315;53.336;55.932;2023-03-16T13:44:56;101036.44;;;5.98;34.44
70730;BME280;58315;53.336;55.932;2023-03-16T13:47:25;101030.41;;;5.96;34.62
70730;BME280;58315;53.336;55.932;2023-03-16T13:49:56;101035.72;;;5.94;34.77
70730;BME280;58315;53.336;55.932;2023-03-16T13:52:31;101028.06;;;5.90;34.48
70730;BME280;58315;53.336;55.932;2023-03-16T13:54:59;101025.09;;;5.78;34.35
70730;BME280;58315;53.336;55.932;2023-03-16T13:57:29;101029.56;;;5.76;34.36
70730;BME280;58315;53.336;55.932;2023-03-16T14:00:13;101027.91;;;5.74;33.95
70730;BME280;58315;53.336;55.932;2023-03-16T14:02:41;101029.34;;;5.62;34.23
70730;BME280;58315;53.336;55.932;2023-03-16T14:05:20;101025.13;;;5.60;34.92
70730;BME280;58315;53.336;55.932;2023-03-16T14:07:48;101026.81;;;5.42;35.82
70730;BME280;58315;53.336;55.932;2023-03-16T14:10:14;101031.03;;;5.25;36.29
70730;BME280;58315;53.336;55.932;2023-03-16T14:12:56;101026.38;;;5.32;36.41
70730;BME280;58315;53.336;55.932;2023-03-16T14:15:26;101026.59;;;5.27;35.67